createdAt,value
2019-04-11T00:03:57.835Z,-3.77
2019-04-11T00:08:01.734Z,-3.79
2019-04-11T00:12:04.504Z,-3.75
2019-04-11T00:16:07.396Z,-3.61
2019-04-11T00:20:09.965Z,-3.62
2019-04-11T00:24:12.511Z,-3.73
2019-04-11T00:28:15.344Z,-3.81
2019-04-11T00:32:19.084Z,-3.96
2019-04-11T00:36:22.234Z,-4.08
2019-04-11T00:40:26.883Z,-4.13
2019-04-11T00:44:30.624Z,-4.22
2019-04-11T00:48:33.476Z,-4.22
2019-04-11T00:52:37.149Z,-4.23
2019-04-11T00:56:40.210Z,-4.38
2019-04-11T01:00:43.045Z,-4.54
2019-04-11T01:04:45.752Z,-4.54
2019-04-11T01:08:48.322Z,-4.54
2019-04-11T01:12:51.825Z,-4.68
2019-04-11T01:16:57.400Z,-4.69
2019-04-11T01:20:59.900Z,-4.73
2019-04-11T01:25:02.432Z,-4.70
2019-04-11T01:29:05.387Z,-4.68
2019-04-11T01:33:08.103Z,-4.73
2019-04-11T01:37:11.400Z,-4.82
2019-04-11T01:41:14.109Z,-4.84
2019-04-11T01:45:19.102Z,-4.95
2019-04-11T01:49:24.028Z,-4.97
2019-04-11T01:53:26.863Z,-5.08
2019-04-11T01:57:29.710Z,-5.01
2019-04-11T02:01:45.216Z,-4.96
2019-04-11T02:05:49.579Z,-5.01
2019-04-11T02:09:52.608Z,-5.07
2019-04-11T02:14:05.154Z,-5.14
2019-04-11T02:17:59.560Z,-5.18
2019-04-11T02:22:24.397Z,-5.16
2019-04-11T02:26:29.713Z,-5.29
2019-04-11T02:30:34.043Z,-5.24
2019-04-11T02:34:39.718Z,-5.24
2019-04-11T02:38:42.075Z,-5.32
2019-04-11T02:42:45.690Z,-5.37
2019-04-11T02:47:00.268Z,-5.33
2019-04-11T02:50:54.288Z,-5.34
2019-04-11T02:54:57.017Z,-5.38
2019-04-11T02:59:02.290Z,-5.41
2019-04-11T03:03:07.523Z,-5.35
2019-04-11T03:07:12.300Z,-5.28
2019-04-11T03:11:16.733Z,-5.29
2019-04-11T03:15:31.701Z,-5.40
2019-04-11T03:19:40.348Z,-5.39
2019-04-11T03:23:30.931Z,-5.44
2019-04-11T03:27:36.958Z,-5.54
2019-04-11T03:32:17.649Z,-5.40
2019-04-11T03:37:00.717Z,-5.32
2019-04-11T03:40:06.075Z,-5.31
2019-04-11T03:44:04.450Z,-5.28
2019-04-11T03:48:12.589Z,-5.20
2019-04-11T03:52:03.584Z,-5.16
2019-04-11T03:56:07.670Z,-5.10
2019-04-11T04:00:14.288Z,-5.02
2019-04-11T04:04:18.857Z,-4.90
2019-04-11T04:08:20.781Z,-4.81
2019-04-11T04:12:25.084Z,-4.69
2019-04-11T04:16:47.730Z,-4.57
2019-04-11T04:20:55.011Z,-4.47
2019-04-11T04:24:58.953Z,-4.32
2019-04-11T04:29:02.015Z,-4.27
2019-04-11T04:33:05.164Z,-4.22
2019-04-11T04:37:09.581Z,-4.04
2019-04-11T04:41:26.795Z,-3.98
2019-04-11T04:45:21.351Z,-3.85
2019-04-11T04:49:24.179Z,-3.70
2019-04-11T04:53:28.236Z,-3.52
2019-04-11T04:57:31.802Z,-3.49
2019-04-11T05:01:37.212Z,-3.32
2019-04-11T05:05:39.823Z,-3.18
2019-04-11T05:09:43.734Z,-3.04
2019-04-11T05:13:50.298Z,-2.89
2019-04-11T05:17:51.233Z,-2.75
2019-04-11T05:21:54.104Z,-2.70
2019-04-11T05:25:57.137Z,-2.49
2019-04-11T05:30:00.782Z,-2.50
2019-04-11T05:34:03.551Z,-2.17
2019-04-11T05:38:05.983Z,-1.94
2019-04-11T05:42:09.196Z,-1.97
2019-04-11T05:46:28.189Z,-1.75
2019-04-11T05:50:24.634Z,-1.62
2019-04-11T05:54:29.019Z,-1.69
2019-04-11T05:58:32.487Z,-1.53
2019-04-11T06:02:41.607Z,-1.28
2019-04-11T06:06:52.733Z,-1.25
2019-04-11T06:11:24.148Z,-1.13
2019-04-11T06:15:31.265Z,-1.01
2019-04-11T06:19:50.858Z,-1.30
2019-04-11T06:24:12.123Z,-1.17
2019-04-11T06:28:22.241Z,-1.18
2019-04-11T06:32:56.281Z,-0.92
2019-04-11T06:37:14.077Z,-0.68
2019-04-11T06:41:38.842Z,-0.88
2019-04-11T06:45:58.907Z,-0.62
2019-04-11T06:50:15.309Z,-0.52
2019-04-11T06:54:39.381Z,-0.53
2019-04-11T06:58:47.948Z,-0.50
2019-04-11T07:02:57.128Z,-0.40
2019-04-11T07:07:00.192Z,-0.38
2019-04-11T07:11:05.828Z,-0.13
2019-04-11T07:15:27.239Z,0.09
2019-04-11T07:19:48.045Z,0.05
2019-04-11T07:24:08.416Z,0.40
2019-04-11T07:28:20.885Z,0.23
2019-04-11T07:32:25.800Z,0.50
2019-04-11T07:36:46.245Z,0.85
2019-04-11T07:41:08.859Z,1.00
2019-04-11T07:45:17.382Z,0.64
2019-04-11T07:49:24.472Z,0.62
2019-04-11T07:53:28.550Z,0.93
2019-04-11T07:57:38.387Z,0.81
2019-04-11T08:02:18.778Z,0.42
2019-04-11T08:06:52.156Z,0.52
2019-04-11T08:11:12.242Z,0.81
2019-04-11T08:15:33.506Z,1.61
2019-04-11T08:19:53.743Z,1.68
2019-04-11T08:23:58.241Z,1.12
2019-04-11T08:28:07.814Z,1.31
2019-04-11T08:32:27.572Z,1.34
2019-04-11T08:36:47.308Z,1.38
2019-04-11T08:41:09.604Z,1.79
2019-04-11T08:45:14.778Z,1.97
2019-04-11T08:49:39.722Z,2.08
2019-04-11T08:53:59.792Z,1.65
2019-04-11T08:58:21.138Z,1.99
2019-04-11T09:02:49.126Z,1.81
2019-04-11T09:06:52.413Z,2.18
2019-04-11T09:11:22.535Z,2.32
2019-04-11T09:15:43.262Z,2.38
2019-04-11T09:20:05.329Z,2.67
2019-04-11T09:24:16.737Z,2.47
2019-04-11T09:28:39.615Z,2.44
2019-04-11T09:32:54.906Z,2.30
2019-04-11T09:37:17.643Z,2.36
2019-04-11T09:41:40.683Z,2.39
2019-04-11T09:46:06.017Z,2.36
2019-04-11T09:50:10.169Z,2.58
2019-04-11T09:54:30.748Z,2.60
2019-04-11T09:58:33.719Z,2.85
2019-04-11T10:03:01.267Z,2.75
2019-04-11T10:07:35.895Z,2.73
2019-04-11T10:12:02.498Z,2.65
2019-04-11T10:16:35.811Z,3.24
2019-04-11T10:20:48.770Z,3.31
2019-04-11T10:25:23.331Z,3.29
2019-04-11T10:29:46.946Z,3.22
2019-04-11T10:34:19.859Z,2.90
2019-04-11T10:38:24.521Z,2.98
2019-04-11T10:42:51.896Z,2.75
2019-04-11T10:47:18.036Z,3.16
2019-04-11T10:51:52.098Z,3.68
2019-04-11T10:56:18.160Z,3.63
2019-04-11T11:00:53.659Z,3.29
2019-04-11T11:04:59.048Z,3.56
2019-04-11T11:09:38.852Z,3.20
2019-04-11T11:14:10.232Z,3.79
2019-04-11T11:19:20.657Z,4.07
2019-04-11T11:23:26.875Z,3.77
2019-04-11T11:27:48.020Z,3.84
2019-04-11T11:32:11.184Z,3.94
2019-04-11T11:36:48.121Z,4.05
2019-04-11T11:41:25.654Z,4.00
2019-04-11T11:45:55.565Z,4.23
2019-04-11T11:50:02.722Z,4.23
2019-04-11T11:54:24.419Z,4.30
2019-04-11T11:58:56.162Z,3.90
2019-04-11T12:03:29.988Z,4.17
2019-04-11T12:07:49.047Z,4.32
2019-04-11T12:12:12.031Z,4.17
2019-04-11T12:16:30.532Z,4.26
2019-04-11T12:20:55.578Z,4.30
2019-04-11T12:25:09.179Z,4.43
2019-04-11T12:29:34.606Z,4.36
2019-04-11T12:34:05.959Z,4.43
2019-04-11T12:38:20.459Z,4.34
2019-04-11T12:42:39.099Z,4.21
2019-04-11T12:47:16.795Z,4.28
2019-04-11T12:51:48.192Z,4.66
2019-04-11T12:56:17.957Z,4.30
2019-04-11T13:00:50.747Z,4.33
2019-04-11T13:05:02.884Z,4.26
2019-04-11T13:09:38.689Z,4.28
2019-04-11T13:14:02.767Z,4.26
2019-04-11T13:18:35.230Z,4.38
2019-04-11T13:23:00.790Z,4.51
2019-04-11T13:27:33.873Z,4.74
2019-04-11T13:31:57.403Z,4.64
2019-04-11T13:36:18.596Z,4.50
2019-04-11T13:40:55.358Z,4.75
2019-04-11T13:45:12.762Z,4.80
2019-04-11T13:49:49.528Z,4.68
2019-04-11T13:54:12.011Z,4.64
2019-04-11T13:58:49.888Z,4.97
2019-04-11T14:03:28.889Z,4.67
2019-04-11T14:07:49.103Z,4.60
2019-04-11T14:12:12.424Z,4.56
2019-04-11T14:16:19.369Z,4.71
2019-04-11T14:20:44.795Z,4.65
2019-04-11T14:25:21.977Z,4.60
2019-04-11T14:29:54.981Z,4.62
2019-04-11T14:34:13.508Z,4.87
2019-04-11T14:38:24.488Z,4.86
2019-04-11T14:42:46.516Z,4.85
2019-04-11T14:47:23.314Z,4.79
2019-04-11T14:51:59.690Z,5.21
2019-04-11T14:56:10.562Z,7.50
2019-04-11T15:00:32.105Z,8.00
2019-04-11T15:04:55.281Z,7.52
2019-04-11T15:09:22.338Z,7.29
2019-04-11T15:13:27.690Z,8.01
2019-04-11T15:17:35.610Z,8.08
2019-04-11T15:21:57.039Z,8.81
2019-04-11T15:26:24.415Z,10.26
2019-04-11T15:30:27.631Z,10.33
2019-04-11T15:34:41.264Z,8.98
2019-04-11T15:39:05.365Z,7.43
2019-04-11T15:43:42.270Z,8.43
2019-04-11T15:47:50.172Z,7.35
2019-04-11T15:51:59.310Z,6.79
2019-04-11T15:56:19.301Z,6.36
2019-04-11T16:00:56.390Z,4.89
2019-04-11T16:05:26.936Z,4.17
2019-04-11T16:09:29.425Z,3.76
2019-04-11T16:13:39.791Z,3.50
2019-04-11T16:17:59.799Z,3.25
2019-04-11T16:22:13.132Z,2.98
2019-04-11T16:26:20.533Z,2.81
2019-04-11T16:30:23.134Z,2.68
2019-04-11T16:34:48.745Z,2.49
2019-04-11T16:39:11.736Z,2.22
2019-04-11T16:43:15.350Z,2.09
2019-04-11T16:47:37.380Z,1.91
2019-04-11T16:51:40.387Z,1.69
2019-04-11T16:55:44.437Z,1.62
2019-04-11T16:59:50.299Z,1.48
2019-04-11T17:03:55.136Z,1.39
2019-04-11T17:08:20.486Z,1.15
2019-04-11T17:12:27.419Z,1.05
2019-04-11T17:16:31.009Z,0.96
2019-04-11T17:20:36.187Z,0.71
2019-04-11T17:24:38.514Z,0.47
2019-04-11T17:28:43.354Z,0.50
2019-04-11T17:32:50.354Z,0.21
2019-04-11T17:36:53.283Z,-0.13
2019-04-11T17:40:55.864Z,-0.43
2019-04-11T17:44:59.012Z,-0.65
2019-04-11T17:49:01.504Z,-0.93
2019-04-11T17:53:05.686Z,-1.08
2019-04-11T17:57:08.237Z,-1.32
2019-04-11T18:01:10.905Z,-1.41
2019-04-11T18:05:16.710Z,-1.47
2019-04-11T18:09:20.467Z,-1.59
2019-04-11T18:13:22.185Z,-1.66
2019-04-11T18:17:26.066Z,-1.70
2019-04-11T18:21:28.473Z,-1.65
2019-04-11T18:25:30.910Z,-1.73
2019-04-11T18:29:33.656Z,-1.79
2019-04-11T18:33:36.333Z,-1.88
2019-04-11T18:37:39.142Z,-1.89
2019-04-11T18:41:41.873Z,-1.81
2019-04-11T18:45:44.340Z,-1.84
2019-04-11T18:49:47.102Z,-1.67
2019-04-11T18:53:49.730Z,-1.85
2019-04-11T18:57:52.254Z,-1.86
2019-04-11T19:01:54.828Z,-1.99
2019-04-11T19:05:57.307Z,-1.97
2019-04-11T19:10:00.043Z,-2.13
2019-04-11T19:14:02.788Z,-2.24
2019-04-11T19:18:07.088Z,-2.34
2019-04-11T19:22:09.958Z,-2.42
2019-04-11T19:26:14.590Z,-2.49
2019-04-11T19:30:16.954Z,-2.55
2019-04-11T19:34:19.369Z,-2.69
2019-04-11T19:38:30.412Z,-2.72
2019-04-11T19:42:32.893Z,-2.74
2019-04-11T19:46:35.524Z,-2.74
2019-04-11T19:50:38.970Z,-2.80
2019-04-11T19:54:41.558Z,-2.80
2019-04-11T19:58:44.031Z,-2.93
2019-04-11T20:02:46.658Z,-2.97
2019-04-11T20:06:49.199Z,-2.97
2019-04-11T20:10:51.862Z,-3.02
2019-04-11T20:14:54.380Z,-3.07
2019-04-11T20:18:58.674Z,-3.09
2019-04-11T20:23:01.310Z,-3.14
2019-04-11T20:27:03.934Z,-3.11
2019-04-11T20:31:06.464Z,-3.16
2019-04-11T20:35:10.145Z,-3.18
2019-04-11T20:39:15.295Z,-3.26
2019-04-11T20:43:17.073Z,-3.35
2019-04-11T20:47:19.692Z,-3.43
2019-04-11T20:51:22.537Z,-3.48
2019-04-11T20:55:24.968Z,-3.51
2019-04-11T20:59:34.580Z,-3.55
2019-04-11T21:03:31.582Z,-3.62
2019-04-11T21:07:34.138Z,-3.64
2019-04-11T21:11:37.271Z,-3.56
2019-04-11T21:15:39.833Z,-3.60
2019-04-11T21:19:43.573Z,-3.67
2019-04-11T21:23:46.224Z,-3.76
2019-04-11T21:27:48.753Z,-3.85
2019-04-11T21:31:51.582Z,-3.86
2019-04-11T21:35:53.941Z,-3.89
2019-04-11T21:39:56.567Z,-3.87
2019-04-11T21:43:59.117Z,-3.99
2019-04-11T21:48:01.729Z,-4.08
2019-04-11T21:52:04.123Z,-4.11
2019-04-11T21:56:06.842Z,-4.17
2019-04-11T22:00:15.023Z,-4.22
2019-04-11T22:04:19.366Z,-4.27
2019-04-11T22:08:22.125Z,-4.29
2019-04-11T22:12:24.857Z,-4.32
2019-04-11T22:16:27.378Z,-4.33
2019-04-11T22:20:30.219Z,-4.36
2019-04-11T22:24:32.753Z,-4.43
2019-04-11T22:28:35.318Z,-4.50
2019-04-11T22:32:37.777Z,-4.55
2019-04-11T22:36:40.375Z,-4.55
2019-04-11T22:40:42.818Z,-4.59
2019-04-11T22:44:45.529Z,-4.63
2019-04-11T22:48:48.110Z,-4.69
2019-04-11T22:52:50.725Z,-4.72
2019-04-11T22:56:53.198Z,-4.81
2019-04-11T23:00:55.711Z,-4.75
2019-04-11T23:04:58.175Z,-4.76
2019-04-11T23:09:00.778Z,-4.84
2019-04-11T23:13:04.877Z,-4.90
2019-04-11T23:17:07.494Z,-4.93
2019-04-11T23:21:11.859Z,-5.03
2019-04-11T23:25:14.638Z,-5.05
2019-04-11T23:29:17.093Z,-5.07
2019-04-11T23:33:21.459Z,-5.10
2019-04-11T23:37:23.876Z,-5.16
2019-04-11T23:41:27.465Z,-5.20
2019-04-11T23:45:30.292Z,-5.27
2019-04-11T23:49:32.926Z,-5.30
2019-04-11T23:53:35.546Z,-5.31
2019-04-11T23:57:38.095Z,-5.33
